Tropical Cyclones
[Index]
Main Index Home Page Stock Weather Photos Extreme Storms Discussion Storm News and Storm Chasing Reports Tropical Cyclones / Hurricanes / Typhoons Weather Data and Links Wild Fires / Bushfires Weather Observation Techniques Weather Picture Catalogue Tornado Pictures and Reports Stock Video Footage and DVDs for sale
Season 1999-2000 Tropical Cyclone BABIOLA Track Map
Season 1999-2000 Summaries: [BoM-AU] [JTWC-AU] [JTWC-SIO] [JTWC-SPAC] [JTWC-SH]
<<- Previous TC | JTWC 1999-2000 Season | Next TC ->>

click for intensity scale information  Lat/long Grid: Show Hide

 Date Labels: Show Hide

Joint Typhoon Warning Centre Cyclone Data

Name: BABIOLA

03 Jan 2000 06:00 UTC to 12 Jan 2000 12:00 UTC

    date/time    lat    long     hPa   cat  kts
2000-01-03 06   12.8    82.4                  25          
2000-01-03 12   12.9    82.1                  25          
2000-01-03 18   12.9    81.8                  25          
2000-01-04 00   12.6    81.6                  30          
2000-01-04 06   12.3    81.7                  30          
2000-01-04 12   11.8    82.2                  25          
2000-01-04 18   11.3    82.8                  25          
2000-01-05 00   10.9    83.3                  25          
2000-01-05 06   11.2    83.6                  30          
2000-01-05 12   11.7    83.6                  30          
2000-01-05 18   12.1    82.9                  35          
2000-01-06 00   12.5    82.2            1     40          
2000-01-06 06   13.0    81.6            1     45          
2000-01-06 12   13.6    81.1            1     45          
2000-01-06 18   14.2    80.4            1     45          
2000-01-07 00   14.6    79.5            1     45          
2000-01-07 06   15.0    78.2            1     50          
2000-01-07 12   15.3    77.0            2     55          
2000-01-07 18   15.6    75.9            2     55          
2000-01-08 00   15.9    74.8            2     65          
2000-01-08 06   16.4    73.4            2     65          
2000-01-08 12   16.8    72.0            2     65          
2000-01-08 18   17.1    70.9            3     75          
2000-01-09 00   17.5    69.5            3     75          
2000-01-09 06   17.9    68.8            3     75          
2000-01-09 12   18.7    68.1            3     80          
2000-01-09 18   19.4    67.6            3     90          
2000-01-10 00   20.0    67.2            3     90          
2000-01-10 06   20.8    67.2            3     90          
2000-01-10 12   21.6    67.3            3     75          
2000-01-10 18   22.6    67.5            2     65          
2000-01-11 00   23.2    67.8            2     55          
2000-01-11 06   23.9    68.2            1     45          
2000-01-11 12   24.6    68.6                  35          
2000-01-11 18   25.6    68.8                  35          
2000-01-12 00   26.5    69.4                  35          
2000-01-12 06   27.9    70.1                  35          
2000-01-12 12   28.9    71.7                  30          
Winds are 1-min average.

Tropical cyclone tracks developed by Michael Bath using data from the Joint Typhoon Warning Centre Best Tracks and Google Maps.


[Australian Severe Weather index] [Copyright Notice] [Email Contacts] [Search This Site] [Privacy Policy]
Document: tropical_cyclone_babiola.htm Updated: 18 September 2016